sensor_id;sensor_type;location;lat;lon;timestamp;pressure;altitude;pressure_sealevel;temperature;humidity
22025;BME280;11176;51.448;6.650;2022-07-29T00:02:08;45194.41;;;-141.29;44.85
22025;BME280;11176;51.448;6.650;2022-07-29T00:04:35;45202.38;;;-141.29;44.99
22025;BME280;11176;51.448;6.650;2022-07-29T00:07:03;45200.41;;;-141.29;44.99
22025;BME280;11176;51.448;6.650;2022-07-29T00:09:31;45204.38;;;-141.29;45.14
22025;BME280;11176;51.448;6.650;2022-07-29T00:11:59;45202.38;;;-141.29;45.16
22025;BME280;11176;51.448;6.650;2022-07-29T00:14:26;45206.38;;;-141.29;44.88
22025;BME280;11176;51.448;6.650;2022-07-29T00:16:53;45202.38;;;-141.29;44.82
22025;BME280;11176;51.448;6.650;2022-07-29T00:19:19;45188.41;;;-141.29;44.77
22025;BME280;11176;51.448;6.650;2022-07-29T00:21:46;45186.41;;;-141.29;44.77
22025;BME280;11176;51.448;6.650;2022-07-29T00:24:13;45190.41;;;-141.29;44.90
22025;BME280;11176;51.448;6.650;2022-07-29T00:26:39;45184.41;;;-141.29;44.58
22025;BME280;11176;51.448;6.650;2022-07-29T00:29:06;45198.41;;;-141.29;45.29
22025;BME280;11176;51.448;6.650;2022-07-29T00:31:52;45192.41;;;-141.29;44.68
22025;BME280;11176;51.448;6.650;2022-07-29T00:34:19;45188.41;;;-141.29;44.67
22025;BME280;11176;51.448;6.650;2022-07-29T00:37:04;45208.38;;;-141.29;44.85
22025;BME280;11176;51.448;6.650;2022-07-29T00:39:33;45194.41;;;-141.29;45.39
22025;BME280;11176;51.448;6.650;2022-07-29T00:42:02;45206.38;;;-141.29;45.93
22025;BME280;11176;51.448;6.650;2022-07-29T00:44:29;45210.38;;;-141.29;45.92
22025;BME280;11176;51.448;6.650;2022-07-29T00:46:56;45202.38;;;-141.29;45.62
22025;BME280;11176;51.448;6.650;2022-07-29T00:49:22;45210.38;;;-141.29;45.97
22025;BME280;11176;51.448;6.650;2022-07-29T00:51:49;45194.41;;;-141.29;45.68
22025;BME280;11176;51.448;6.650;2022-07-29T00:54:16;45202.38;;;-141.29;45.73
22025;BME280;11176;51.448;6.650;2022-07-29T00:56:43;45208.38;;;-141.29;45.65
22025;BME280;11176;51.448;6.650;2022-07-29T00:59:10;45220.38;;;-141.29;45.75
22025;BME280;11176;51.448;6.650;2022-07-29T01:01:36;45194.41;;;-141.29;46.13
22025;BME280;11176;51.448;6.650;2022-07-29T01:04:03;45202.38;;;-141.29;46.41
22025;BME280;11176;51.448;6.650;2022-07-29T01:06:31;45200.41;;;-141.29;46.17
22025;BME280;11176;51.448;6.650;2022-07-29T01:08:58;45198.41;;;-141.29;46.26
22025;BME280;11176;51.448;6.650;2022-07-29T01:11:25;45200.41;;;-141.29;46.40
22025;BME280;11176;51.448;6.650;2022-07-29T01:13:52;45216.38;;;-141.29;46.38
22025;BME280;11176;51.448;6.650;2022-07-29T01:16:30;45214.38;;;-141.29;46.23
22025;BME280;11176;51.448;6.650;2022-07-29T01:19:12;45218.38;;;-141.29;46.31
22025;BME280;11176;51.448;6.650;2022-07-29T01:21:51;45198.41;;;-141.29;46.12
22025;BME280;11176;51.448;6.650;2022-07-29T01:26:59;45210.38;;;-141.29;46.45
22025;BME280;11176;51.448;6.650;2022-07-29T01:29:49;45210.38;;;-141.29;46.68
22025;BME280;11176;51.448;6.650;2022-07-29T01:32:22;45214.38;;;-141.29;46.34
22025;BME280;11176;51.448;6.650;2022-07-29T01:37:50;45210.38;;;-141.29;46.70
22025;BME280;11176;51.448;6.650;2022-07-29T01:40:51;45216.38;;;-141.29;46.49
22025;BME280;11176;51.448;6.650;2022-07-29T01:43:23;45206.38;;;-141.29;46.25
22025;BME280;11176;51.448;6.650;2022-07-29T01:45:56;45198.41;;;-141.29;47.14
22025;BME280;11176;51.448;6.650;2022-07-29T01:48:45;45214.38;;;-141.29;46.47
22025;BME280;11176;51.448;6.650;2022-07-29T01:51:20;45194.41;;;-141.29;46.79
22025;BME280;11176;51.448;6.650;2022-07-29T01:54:02;45214.38;;;-141.29;46.30
22025;BME280;11176;51.448;6.650;2022-07-29T01:56:30;45218.38;;;-141.29;46.85
22025;BME280;11176;51.448;6.650;2022-07-29T01:59:00;45212.38;;;-141.29;46.80
22025;BME280;11176;51.448;6.650;2022-07-29T02:01:30;45212.38;;;-141.29;46.48
22025;BME280;11176;51.448;6.650;2022-07-29T02:03:59;45196.41;;;-141.29;46.25
22025;BME280;11176;51.448;6.650;2022-07-29T02:06:27;45230.38;;;-141.29;46.46
22025;BME280;11176;51.448;6.650;2022-07-29T02:08:56;45212.38;;;-141.29;46.43
22025;BME280;11176;51.448;6.650;2022-07-29T02:11:24;45222.38;;;-141.29;46.43
22025;BME280;11176;51.448;6.650;2022-07-29T02:13:52;45214.38;;;-141.29;46.88
22025;BME280;11176;51.448;6.650;2022-07-29T02:16:21;45222.38;;;-141.29;47.02
22025;BME280;11176;51.448;6.650;2022-07-29T02:18:52;45208.38;;;-141.29;46.97
22025;BME280;11176;51.448;6.650;2022-07-29T02:21:24;45218.38;;;-141.29;46.33
22025;BME280;11176;51.448;6.650;2022-07-29T02:23:52;45202.38;;;-141.29;46.03
22025;BME280;11176;51.448;6.650;2022-07-29T02:26:20;45226.38;;;-141.29;46.16
22025;BME280;11176;51.448;6.650;2022-07-29T02:28:50;45214.38;;;-141.29;46.31
22025;BME280;11176;51.448;6.650;2022-07-29T02:31:25;45222.38;;;-141.29;46.39
22025;BME280;11176;51.448;6.650;2022-07-29T02:33:53;45218.38;;;-141.29;46.48
22025;BME280;11176;51.448;6.650;2022-07-29T02:36:22;45214.38;;;-141.29;46.48
22025;BME280;11176;51.448;6.650;2022-07-29T02:38:50;45206.38;;;-141.29;46.95
22025;BME280;11176;51.448;6.650;2022-07-29T02:41:27;45204.38;;;-141.29;47.03
22025;BME280;11176;51.448;6.650;2022-07-29T02:44:01;45214.38;;;-141.29;47.26
22025;BME280;11176;51.448;6.650;2022-07-29T02:46:34;45210.38;;;-141.29;47.41
22025;BME280;11176;51.448;6.650;2022-07-29T02:52:14;45222.38;;;-141.29;48.03
22025;BME280;11176;51.448;6.650;2022-07-29T02:55:33;45220.38;;;-141.29;48.43
22025;BME280;11176;51.448;6.650;2022-07-29T02:57:38;45218.38;;;-141.29;50.29
22025;BME280;11176;51.448;6.650;2022-07-29T03:00:23;45220.38;;;-141.29;51.10
22025;BME280;11176;51.448;6.650;2022-07-29T03:02:55;45208.38;;;-141.29;52.58
22025;BME280;11176;51.448;6.650;2022-07-29T03:05:22;45234.38;;;-141.29;52.74
22025;BME280;11176;51.448;6.650;2022-07-29T03:07:54;45222.38;;;-141.29;52.86
22025;BME280;11176;51.448;6.650;2022-07-29T03:10:22;45224.38;;;-141.29;52.99
22025;BME280;11176;51.448;6.650;2022-07-29T03:12:49;45226.38;;;-141.29;54.05
22025;BME280;11176;51.448;6.650;2022-07-29T03:15:17;45228.38;;;-141.29;54.41
22025;BME280;11176;51.448;6.650;2022-07-29T03:17:45;45232.38;;;-141.29;54.62
22025;BME280;11176;51.448;6.650;2022-07-29T03:20:12;45242.34;;;-141.29;54.27
22025;BME280;11176;51.448;6.650;2022-07-29T03:22:41;45238.38;;;-141.29;53.74
22025;BME280;11176;51.448;6.650;2022-07-29T03:25:14;45240.34;;;-141.29;53.96
22025;BME280;11176;51.448;6.650;2022-07-29T03:27:41;45258.34;;;-141.29;53.95
22025;BME280;11176;51.448;6.650;2022-07-29T03:30:08;45236.38;;;-141.29;53.99
22025;BME280;11176;51.448;6.650;2022-07-29T03:32:36;45228.38;;;-141.29;54.18
22025;BME280;11176;51.448;6.650;2022-07-29T03:35:04;45246.34;;;-141.29;54.78
22025;BME280;11176;51.448;6.650;2022-07-29T03:37:31;45260.34;;;-141.29;54.53
22025;BME280;11176;51.448;6.650;2022-07-29T03:40:02;45236.38;;;-141.29;54.61
22025;BME280;11176;51.448;6.650;2022-07-29T03:42:31;45252.34;;;-141.29;54.48
22025;BME280;11176;51.448;6.650;2022-07-29T03:45:06;45254.34;;;-141.29;54.24
22025;BME280;11176;51.448;6.650;2022-07-29T03:47:35;45224.38;;;-141.29;53.83
22025;BME280;11176;51.448;6.650;2022-07-29T03:50:16;45246.34;;;-141.29;54.57
22025;BME280;11176;51.448;6.650;2022-07-29T03:52:45;45238.38;;;-141.29;55.31
22025;BME280;11176;51.448;6.650;2022-07-29T03:55:12;45238.38;;;-141.29;56.11
22025;BME280;11176;51.448;6.650;2022-07-29T03:57:39;45242.34;;;-141.29;56.76
22025;BME280;11176;51.448;6.650;2022-07-29T04:00:07;45228.38;;;-141.29;58.24
22025;BME280;11176;51.448;6.650;2022-07-29T04:02:35;45246.34;;;-141.29;61.68
22025;BME280;11176;51.448;6.650;2022-07-29T04:05:02;45246.34;;;-141.29;66.32
22025;BME280;11176;51.448;6.650;2022-07-29T04:07:28;45240.34;;;-141.29;68.86
22025;BME280;11176;51.448;6.650;2022-07-29T04:09:55;45238.38;;;-141.29;71.97
22025;BME280;11176;51.448;6.650;2022-07-29T04:12:22;45266.34;;;-141.29;73.86
22025;BME280;11176;51.448;6.650;2022-07-29T04:14:49;45258.34;;;-141.29;75.47
22025;BME280;11176;51.448;6.650;2022-07-29T04:17:16;45262.34;;;-141.29;77.01
22025;BME280;11176;51.448;6.650;2022-07-29T04:19:43;45262.34;;;-141.29;77.77
22025;BME280;11176;51.448;6.650;2022-07-29T04:22:09;45250.34;;;-141.29;79.00
22025;BME280;11176;51.448;6.650;2022-07-29T04:24:36;45240.34;;;-141.29;79.95
22025;BME280;11176;51.448;6.650;2022-07-29T04:27:02;45252.34;;;-141.29;80.01
22025;BME280;11176;51.448;6.650;2022-07-29T04:29:28;45254.34;;;-141.29;80.96
22025;BME280;11176;51.448;6.650;2022-07-29T04:31:55;45274.34;;;-141.29;81.79
22025;BME280;11176;51.448;6.650;2022-07-29T04:34:21;45250.34;;;-141.29;82.27
22025;BME280;11176;51.448;6.650;2022-07-29T04:36:53;45258.34;;;-141.29;82.53
22025;BME280;11176;51.448;6.650;2022-07-29T04:39:19;45258.34;;;-141.29;82.37
22025;BME280;11176;51.448;6.650;2022-07-29T04:41:49;45258.34;;;-141.29;82.19
22025;BME280;11176;51.448;6.650;2022-07-29T04:44:17;45266.34;;;-141.29;82.68
22025;BME280;11176;51.448;6.650;2022-07-29T04:46:45;45266.34;;;-141.29;82.77
22025;BME280;11176;51.448;6.650;2022-07-29T04:49:11;45254.34;;;-141.29;82.64
22025;BME280;11176;51.448;6.650;2022-07-29T04:51:38;45256.34;;;-141.29;82.10
22025;BME280;11176;51.448;6.650;2022-07-29T04:54:04;45264.34;;;-141.29;82.39
22025;BME280;11176;51.448;6.650;2022-07-29T04:56:32;45262.34;;;-141.29;82.73
22025;BME280;11176;51.448;6.650;2022-07-29T04:58:58;45274.34;;;-141.29;83.10
22025;BME280;11176;51.448;6.650;2022-07-29T05:01:25;45262.34;;;-141.29;83.05
22025;BME280;11176;51.448;6.650;2022-07-29T05:03:51;45270.34;;;-141.29;84.05
22025;BME280;11176;51.448;6.650;2022-07-29T05:06:25;45278.31;;;-141.29;84.80
22025;BME280;11176;51.448;6.650;2022-07-29T05:08:51;45274.34;;;-141.29;85.15
22025;BME280;11176;51.448;6.650;2022-07-29T05:11:17;45282.31;;;-141.29;85.79
22025;BME280;11176;51.448;6.650;2022-07-29T05:13:48;45272.34;;;-141.29;86.21
22025;BME280;11176;51.448;6.650;2022-07-29T05:16:14;45274.34;;;-141.29;86.40
22025;BME280;11176;51.448;6.650;2022-07-29T05:18:41;45270.34;;;-141.29;86.77
22025;BME280;11176;51.448;6.650;2022-07-29T05:21:08;45270.34;;;-141.29;86.55
22025;BME280;11176;51.448;6.650;2022-07-29T05:23:34;45278.31;;;-141.29;86.84
22025;BME280;11176;51.448;6.650;2022-07-29T05:26:01;45286.31;;;-141.29;85.90
22025;BME280;11176;51.448;6.650;2022-07-29T05:28:28;45266.34;;;-141.29;85.79
22025;BME280;11176;51.448;6.650;2022-07-29T05:30:54;45284.31;;;-141.29;86.37
22025;BME280;11176;51.448;6.650;2022-07-29T05:33:21;45282.31;;;-141.29;86.70
22025;BME280;11176;51.448;6.650;2022-07-29T05:36:01;45278.31;;;-141.29;87.15
22025;BME280;11176;51.448;6.650;2022-07-29T05:38:28;45266.34;;;-141.29;87.25
22025;BME280;11176;51.448;6.650;2022-07-29T05:40:56;45290.31;;;-141.29;87.39
22025;BME280;11176;51.448;6.650;2022-07-29T05:43:23;45266.34;;;-141.29;88.00
22025;BME280;11176;51.448;6.650;2022-07-29T05:45:50;45292.31;;;-141.29;88.55
22025;BME280;11176;51.448;6.650;2022-07-29T05:48:16;45288.31;;;-141.29;89.18
22025;BME280;11176;51.448;6.650;2022-07-29T05:50:43;45282.31;;;-141.29;89.76
22025;BME280;11176;51.448;6.650;2022-07-29T05:53:13;45282.31;;;-141.29;89.99
22025;BME280;11176;51.448;6.650;2022-07-29T05:55:46;45298.31;;;-141.29;90.29
22025;BME280;11176;51.448;6.650;2022-07-29T05:58:13;45278.31;;;-141.29;90.20
22025;BME280;11176;51.448;6.650;2022-07-29T06:00:39;45274.34;;;-141.29;89.58
22025;BME280;11176;51.448;6.650;2022-07-29T06:03:06;45278.31;;;-141.29;89.14
22025;BME280;11176;51.448;6.650;2022-07-29T06:05:32;45284.31;;;-141.29;88.73
22025;BME280;11176;51.448;6.650;2022-07-29T06:07:59;45274.34;;;-141.29;88.60
22025;BME280;11176;51.448;6.650;2022-07-29T06:10:26;45270.34;;;-141.29;88.99
22025;BME280;11176;51.448;6.650;2022-07-29T06:12:53;45264.34;;;-141.29;89.23
22025;BME280;11176;51.448;6.650;2022-07-29T06:15:19;45278.31;;;-141.29;89.06
22025;BME280;11176;51.448;6.650;2022-07-29T06:17:46;45262.34;;;-141.29;88.83
22025;BME280;11176;51.448;6.650;2022-07-29T06:20:30;45282.31;;;-141.29;88.97
22025;BME280;11176;51.448;6.650;2022-07-29T06:22:58;45294.31;;;-141.29;88.95
22025;BME280;11176;51.448;6.650;2022-07-29T06:25:26;45282.31;;;-141.29;88.69
22025;BME280;11176;51.448;6.650;2022-07-29T06:27:55;45274.34;;;-141.29;88.85
22025;BME280;11176;51.448;6.650;2022-07-29T06:30:21;45270.34;;;-141.29;89.55
22025;BME280;11176;51.448;6.650;2022-07-29T06:32:48;45266.34;;;-141.29;89.37
22025;BME280;11176;51.448;6.650;2022-07-29T06:35:15;45260.34;;;-141.29;88.89
22025;BME280;11176;51.448;6.650;2022-07-29T06:38:03;45260.34;;;-141.29;87.95
22025;BME280;11176;51.448;6.650;2022-07-29T06:40:44;45262.34;;;-141.29;86.24
22025;BME280;11176;51.448;6.650;2022-07-29T06:43:30;45262.34;;;-141.29;85.79
22025;BME280;11176;51.448;6.650;2022-07-29T06:45:59;45260.34;;;-141.29;85.34
22025;BME280;11176;51.448;6.650;2022-07-29T06:48:27;45264.34;;;-141.29;85.08
22025;BME280;11176;51.448;6.650;2022-07-29T06:50:55;45268.34;;;-141.29;84.20
22025;BME280;11176;51.448;6.650;2022-07-29T06:53:21;45268.34;;;-141.29;81.85
22025;BME280;11176;51.448;6.650;2022-07-29T06:55:48;45254.34;;;-141.29;81.30
22025;BME280;11176;51.448;6.650;2022-07-29T06:58:15;45258.34;;;-141.29;82.45
22025;BME280;11176;51.448;6.650;2022-07-29T07:00:54;45274.34;;;-141.29;82.52
22025;BME280;11176;51.448;6.650;2022-07-29T07:03:21;45266.34;;;-141.29;83.58
22025;BME280;11176;51.448;6.650;2022-07-29T07:05:49;45268.34;;;-141.29;84.13
22025;BME280;11176;51.448;6.650;2022-07-29T07:08:15;45282.31;;;-141.29;83.61
22025;BME280;11176;51.448;6.650;2022-07-29T07:10:42;45278.31;;;-141.29;83.89
22025;BME280;11176;51.448;6.650;2022-07-29T07:13:09;45258.34;;;-141.29;84.84
22025;BME280;11176;51.448;6.650;2022-07-29T07:15:36;45256.34;;;-141.29;85.55
22025;BME280;11176;51.448;6.650;2022-07-29T07:18:06;45258.34;;;-141.29;86.65
22025;BME280;11176;51.448;6.650;2022-07-29T07:20:33;45270.34;;;-141.29;87.40
22025;BME280;11176;51.448;6.650;2022-07-29T07:23:00;45250.34;;;-141.29;88.38
22025;BME280;11176;51.448;6.650;2022-07-29T07:25:26;45282.31;;;-141.29;88.54
22025;BME280;11176;51.448;6.650;2022-07-29T07:27:53;45254.34;;;-141.29;88.40
22025;BME280;11176;51.448;6.650;2022-07-29T07:30:20;45266.34;;;-141.29;88.17
22025;BME280;11176;51.448;6.650;2022-07-29T07:32:47;45266.34;;;-141.29;87.39
22025;BME280;11176;51.448;6.650;2022-07-29T07:35:13;45262.34;;;-141.29;87.65
22025;BME280;11176;51.448;6.650;2022-07-29T07:37:40;45262.34;;;-141.29;87.18
22025;BME280;11176;51.448;6.650;2022-07-29T07:40:08;45272.34;;;-141.29;87.81
22025;BME280;11176;51.448;6.650;2022-07-29T07:42:35;45272.34;;;-141.29;88.95
22025;BME280;11176;51.448;6.650;2022-07-29T07:45:06;45244.34;;;-141.29;88.77
22025;BME280;11176;51.448;6.650;2022-07-29T07:47:42;45258.34;;;-141.29;87.85
22025;BME280;11176;51.448;6.650;2022-07-29T07:50:10;45264.34;;;-141.29;86.35
22025;BME280;11176;51.448;6.650;2022-07-29T07:52:52;45282.31;;;-141.29;86.65
22025;BME280;11176;51.448;6.650;2022-07-29T07:55:20;45262.34;;;-141.29;87.31
22025;BME280;11176;51.448;6.650;2022-07-29T07:57:47;45268.34;;;-141.29;86.75
22025;BME280;11176;51.448;6.650;2022-07-29T08:00:14;45266.34;;;-141.29;87.59
22025;BME280;11176;51.448;6.650;2022-07-29T08:02:42;45252.34;;;-141.29;87.65
22025;BME280;11176;51.448;6.650;2022-07-29T08:05:09;45260.34;;;-141.29;87.87
22025;BME280;11176;51.448;6.650;2022-07-29T08:07:38;45266.34;;;-141.29;87.24
22025;BME280;11176;51.448;6.650;2022-07-29T08:10:05;45268.34;;;-141.29;86.65
22025;BME280;11176;51.448;6.650;2022-07-29T08:12:31;45272.34;;;-141.29;87.45
22025;BME280;11176;51.448;6.650;2022-07-29T08:14:58;45258.34;;;-141.29;87.98
22025;BME280;11176;51.448;6.650;2022-07-29T08:17:24;45270.34;;;-141.29;88.12
22025;BME280;11176;51.448;6.650;2022-07-29T08:19:52;45262.34;;;-141.29;88.78
22025;BME280;11176;51.448;6.650;2022-07-29T08:22:18;45260.34;;;-141.29;88.96
22025;BME280;11176;51.448;6.650;2022-07-29T08:24:45;45250.34;;;-141.29;90.03
22025;BME280;11176;51.448;6.650;2022-07-29T08:27:22;45254.34;;;-141.29;90.09
22025;BME280;11176;51.448;6.650;2022-07-29T08:30:08;45262.34;;;-141.29;90.08
22025;BME280;11176;51.448;6.650;2022-07-29T08:32:36;45254.34;;;-141.29;90.02
22025;BME280;11176;51.448;6.650;2022-07-29T08:35:20;45252.34;;;-141.29;90.25
22025;BME280;11176;51.448;6.650;2022-07-29T08:37:47;45246.34;;;-141.29;89.58
22025;BME280;11176;51.448;6.650;2022-07-29T08:40:15;45266.34;;;-141.29;89.90
22025;BME280;11176;51.448;6.650;2022-07-29T08:42:42;45260.34;;;-141.29;89.85
22025;BME280;11176;51.448;6.650;2022-07-29T08:45:09;45252.34;;;-141.29;89.62
22025;BME280;11176;51.448;6.650;2022-07-29T08:47:36;45254.34;;;-141.29;89.59
22025;BME280;11176;51.448;6.650;2022-07-29T08:50:09;45264.34;;;-141.29;90.08
22025;BME280;11176;51.448;6.650;2022-07-29T08:52:38;45264.34;;;-141.29;90.35
22025;BME280;11176;51.448;6.650;2022-07-29T08:55:08;45254.34;;;-141.29;90.93
22025;BME280;11176;51.448;6.650;2022-07-29T08:57:35;45252.34;;;-141.29;91.46
22025;BME280;11176;51.448;6.650;2022-07-29T09:00:06;45262.34;;;-141.29;91.50
22025;BME280;11176;51.448;6.650;2022-07-29T09:02:44;45258.34;;;-141.29;91.85
22025;BME280;11176;51.448;6.650;2022-07-29T09:05:13;45258.34;;;-141.29;91.76
22025;BME280;11176;51.448;6.650;2022-07-29T09:07:43;45254.34;;;-141.29;91.75
22025;BME280;11176;51.448;6.650;2022-07-29T09:10:10;45254.34;;;-141.29;91.56
22025;BME280;11176;51.448;6.650;2022-07-29T09:12:37;45264.34;;;-141.29;90.68
22025;BME280;11176;51.448;6.650;2022-07-29T09:15:04;45250.34;;;-141.29;90.40
22025;BME280;11176;51.448;6.650;2022-07-29T09:17:46;45242.34;;;-141.29;89.40
22025;BME280;11176;51.448;6.650;2022-07-29T09:20:18;45244.34;;;-141.29;88.99
22025;BME280;11176;51.448;6.650;2022-07-29T09:22:45;45222.38;;;-141.29;89.72
22025;BME280;11176;51.448;6.650;2022-07-29T09:25:36;45246.34;;;-141.29;89.65
22025;BME280;11176;51.448;6.650;2022-07-29T09:28:11;45234.38;;;-141.29;89.01
22025;BME280;11176;51.448;6.650;2022-07-29T09:30:53;45252.34;;;-141.29;88.02
22025;BME280;11176;51.448;6.650;2022-07-29T09:33:21;45238.38;;;-141.29;87.87
22025;BME280;11176;51.448;6.650;2022-07-29T09:36:04;45246.34;;;-141.29;87.61
22025;BME280;11176;51.448;6.650;2022-07-29T09:38:31;45238.38;;;-141.29;87.69
22025;BME280;11176;51.448;6.650;2022-07-29T09:41:00;45230.38;;;-141.29;86.74
22025;BME280;11176;51.448;6.650;2022-07-29T09:43:31;45238.38;;;-141.29;86.10
22025;BME280;11176;51.448;6.650;2022-07-29T09:46:13;45230.38;;;-141.29;85.52
22025;BME280;11176;51.448;6.650;2022-07-29T09:48:40;45238.38;;;-141.29;85.19
22025;BME280;11176;51.448;6.650;2022-07-29T09:51:19;45218.38;;;-141.29;84.62
22025;BME280;11176;51.448;6.650;2022-07-29T09:53:55;45222.38;;;-141.29;84.44
22025;BME280;11176;51.448;6.650;2022-07-29T09:56:41;45218.38;;;-141.29;83.78
22025;BME280;11176;51.448;6.650;2022-07-29T09:59:08;45214.38;;;-141.29;83.78
22025;BME280;11176;51.448;6.650;2022-07-29T10:01:35;45226.38;;;-141.29;83.87
22025;BME280;11176;51.448;6.650;2022-07-29T10:04:02;45218.38;;;-141.29;83.10
22025;BME280;11176;51.448;6.650;2022-07-29T10:06:28;45232.38;;;-141.29;82.33
22025;BME280;11176;51.448;6.650;2022-07-29T10:09:07;45214.38;;;-141.29;80.43
22025;BME280;11176;51.448;6.650;2022-07-29T10:11:34;45222.38;;;-141.29;79.88
22025;BME280;11176;51.448;6.650;2022-07-29T10:14:15;45210.38;;;-141.29;79.11
22025;BME280;11176;51.448;6.650;2022-07-29T10:16:42;45218.38;;;-141.29;78.26
22025;BME280;11176;51.448;6.650;2022-07-29T10:19:09;45220.38;;;-141.29;78.73
22025;BME280;11176;51.448;6.650;2022-07-29T10:21:36;45214.38;;;-141.29;79.33
22025;BME280;11176;51.448;6.650;2022-07-29T10:24:04;45194.41;;;-141.29;78.38
22025;BME280;11176;51.448;6.650;2022-07-29T10:26:40;45218.38;;;-141.29;77.27
22025;BME280;11176;51.448;6.650;2022-07-29T10:29:07;45220.38;;;-141.29;76.33
22025;BME280;11176;51.448;6.650;2022-07-29T10:31:44;45206.38;;;-141.29;75.38
22025;BME280;11176;51.448;6.650;2022-07-29T10:37:08;45210.38;;;-141.29;74.46
22025;BME280;11176;51.448;6.650;2022-07-29T10:42:25;45212.38;;;-141.29;73.41
22025;BME280;11176;51.448;6.650;2022-07-29T10:45:00;45206.38;;;-141.29;71.51
22025;BME280;11176;51.448;6.650;2022-07-29T10:47:30;45202.38;;;-141.29;68.67
22025;BME280;11176;51.448;6.650;2022-07-29T10:52:54;45218.38;;;-141.29;69.64
22025;BME280;11176;51.448;6.650;2022-07-29T10:55:35;45222.38;;;-141.29;68.92
22025;BME280;11176;51.448;6.650;2022-07-29T10:58:33;45206.38;;;-141.29;66.88
22025;BME280;11176;51.448;6.650;2022-07-29T11:01:30;45210.38;;;-141.29;66.89
22025;BME280;11176;51.448;6.650;2022-07-29T11:04:04;45198.41;;;-141.29;69.71
22025;BME280;11176;51.448;6.650;2022-07-29T11:09:29;45196.41;;;-141.29;65.26
22025;BME280;11176;51.448;6.650;2022-07-29T11:15:08;45198.41;;;-141.29;67.95
22025;BME280;11176;51.448;6.650;2022-07-29T11:23:27;45166.44;;;-141.29;62.97
22025;BME280;11176;51.448;6.650;2022-07-29T11:26:13;45168.41;;;-141.29;62.66
22025;BME280;11176;51.448;6.650;2022-07-29T11:31:38;45172.41;;;-141.29;61.10
22025;BME280;11176;51.448;6.650;2022-07-29T11:34:27;45170.41;;;-141.29;59.02
22025;BME280;11176;51.448;6.650;2022-07-29T11:37:15;45140.44;;;-141.29;55.92
22025;BME280;11176;51.448;6.650;2022-07-29T11:45:16;45138.44;;;-141.29;55.27
22025;BME280;11176;51.448;6.650;2022-07-29T11:48:04;45144.44;;;-141.29;54.32
22025;BME280;11176;51.448;6.650;2022-07-29T11:50:51;45150.44;;;-141.29;52.70
22025;BME280;11176;51.448;6.650;2022-07-29T11:53:18;45130.44;;;-141.29;52.78
22025;BME280;11176;51.448;6.650;2022-07-29T11:55:47;45144.44;;;-141.29;51.22
22025;BME280;11176;51.448;6.650;2022-07-29T11:58:22;45132.44;;;-141.29;51.16
22025;BME280;11176;51.448;6.650;2022-07-29T12:00:52;45142.44;;;-141.29;49.49
22025;BME280;11176;51.448;6.650;2022-07-29T12:03:28;45160.44;;;-141.29;49.39
22025;BME280;11176;51.448;6.650;2022-07-29T12:06:03;45114.47;;;-141.29;49.55
22025;BME280;11176;51.448;6.650;2022-07-29T12:08:42;45146.44;;;-141.29;49.46
22025;BME280;11176;51.448;6.650;2022-07-29T12:11:17;45144.44;;;-141.29;49.86
22025;BME280;11176;51.448;6.650;2022-07-29T12:13:46;45134.44;;;-141.29;51.12
22025;BME280;11176;51.448;6.650;2022-07-29T12:16:15;45142.44;;;-141.29;51.77
22025;BME280;11176;51.448;6.650;2022-07-29T12:18:58;45142.44;;;-141.29;52.30
22025;BME280;11176;51.448;6.650;2022-07-29T12:21:25;45154.44;;;-141.29;49.82
22025;BME280;11176;51.448;6.650;2022-07-29T12:23:55;45144.44;;;-141.29;49.78
22025;BME280;11176;51.448;6.650;2022-07-29T12:26:27;45156.44;;;-141.29;49.89
22025;BME280;11176;51.448;6.650;2022-07-29T12:28:53;45138.44;;;-141.29;48.92
22025;BME280;11176;51.448;6.650;2022-07-29T12:31:21;45152.44;;;-141.29;49.24
22025;BME280;11176;51.448;6.650;2022-07-29T12:34:08;45158.44;;;-141.29;49.36
22025;BME280;11176;51.448;6.650;2022-07-29T12:36:36;45146.44;;;-141.29;49.95
22025;BME280;11176;51.448;6.650;2022-07-29T12:39:04;45158.44;;;-141.29;51.30
22025;BME280;11176;51.448;6.650;2022-07-29T12:41:30;45146.44;;;-141.29;52.45
22025;BME280;11176;51.448;6.650;2022-07-29T12:43:57;45142.44;;;-141.29;52.69
22025;BME280;11176;51.448;6.650;2022-07-29T12:46:24;45140.44;;;-141.29;52.38
22025;BME280;11176;51.448;6.650;2022-07-29T12:48:52;45158.44;;;-141.29;52.11
22025;BME280;11176;51.448;6.650;2022-07-29T12:51:37;45138.44;;;-141.29;52.90
22025;BME280;11176;51.448;6.650;2022-07-29T12:54:07;45146.44;;;-141.29;52.09
22025;BME280;11176;51.448;6.650;2022-07-29T12:56:34;45142.44;;;-141.29;51.37
22025;BME280;11176;51.448;6.650;2022-07-29T12:59:20;45144.44;;;-141.29;50.51
22025;BME280;11176;51.448;6.650;2022-07-29T13:01:50;45130.44;;;-141.29;49.17
22025;BME280;11176;51.448;6.650;2022-07-29T13:04:30;45144.44;;;-141.29;49.40
22025;BME280;11176;51.448;6.650;2022-07-29T13:07:07;45130.44;;;-141.29;49.38
22025;BME280;11176;51.448;6.650;2022-07-29T13:09:40;45158.44;;;-141.29;49.70
22025;BME280;11176;51.448;6.650;2022-07-29T13:12:09;45142.44;;;-141.29;49.52
22025;BME280;11176;51.448;6.650;2022-07-29T13:14:40;45132.44;;;-141.29;48.14
22025;BME280;11176;51.448;6.650;2022-07-29T13:17:09;45140.44;;;-141.29;48.24
22025;BME280;11176;51.448;6.650;2022-07-29T13:19:44;45140.44;;;-141.29;48.67
22025;BME280;11176;51.448;6.650;2022-07-29T13:22:12;45138.44;;;-141.29;49.36
22025;BME280;11176;51.448;6.650;2022-07-29T13:24:51;45132.44;;;-141.29;49.64
22025;BME280;11176;51.448;6.650;2022-07-29T13:27:19;45154.44;;;-141.29;49.07
22025;BME280;11176;51.448;6.650;2022-07-29T13:29:46;45144.44;;;-141.29;48.92
22025;BME280;11176;51.448;6.650;2022-07-29T13:32:13;45124.47;;;-141.29;46.84
22025;BME280;11176;51.448;6.650;2022-07-29T13:34:39;45150.44;;;-141.29;48.16
22025;BME280;11176;51.448;6.650;2022-07-29T13:37:07;45142.44;;;-141.29;49.10